Time;durP1;ratioP1;P1;durP2;ratioP2;P2;SDS_P1;SDS_P2;PMS_P1;PMS_P2;Temp;Humidity;BMP_temperature;BMP_pressure;BME280_temperature;BME280_humidity;BME280_pressure;Samples;Min_cycle;Max_cycle;Signal;HPM_P1;HPM_P2
2022/11/25 00:00:34;;;;;;;13.50;8.30;;;;;;;;;;5153718;27;20454;-70
2022/11/25 00:03:02;;;;;;;14.30;10.47;;;;;;;;;;5153902;27;20455;-69
2022/11/25 00:05:29;;;;;;;13.10;9.80;;;;;;;;;;5153965;27;20466;-70
2022/11/25 00:07:56;;;;;;;14.50;10.00;;;;;;;;;;5156354;27;20456;-70
2022/11/25 00:10:24;;;;;;;11.10;8.90;;;;;;;;;;5157990;27;20443;-69
2022/11/25 00:12:51;;;;;;;16.63;9.53;;;;;;;;;;5157707;27;20463;-70
2022/11/25 00:15:19;;;;;;;14.23;9.87;;;;;;;;;;5156742;27;20805;-70
2022/11/25 00:17:46;;;;;;;16.50;10.70;;;;;;;;;;5158029;27;20926;-70
2022/11/25 00:20:13;;;;;;;13.47;9.57;;;;;;;;;;5157815;27;20523;-70
2022/11/25 00:22:40;;;;;;;13.07;9.70;;;;;;;;;;5157752;27;20451;-70
2022/11/25 00:25:08;;;;;;;15.13;9.67;;;;;;;;;;5157340;27;20447;-70
2022/11/25 00:27:36;;;;;;;14.73;10.07;;;;;;;;;;5157799;27;20879;-70
2022/11/25 00:30:03;;;;;;;16.00;9.70;;;;;;;;;;5157823;27;20801;-70
2022/11/25 00:32:31;;;;;;;11.77;9.03;;;;;;;;;;5157951;27;20452;-70
2022/11/25 00:34:58;;;;;;;9.77;8.27;;;;;;;;;;5157110;27;20446;-70
2022/11/25 00:37:25;;;;;;;12.33;9.30;;;;;;;;;;5157283;27;20463;-70
2022/11/25 00:39:52;;;;;;;15.83;9.80;;;;;;;;;;5157539;27;20842;-70
2022/11/25 00:45:06;;;;;;;14.10;9.33;;;;;;;;;;5157058;27;20489;-70
2022/11/25 00:47:34;;;;;;;12.67;10.00;;;;;;;;;;5157193;27;20467;-70
2022/11/25 00:50:01;;;;;;;16.90;10.93;;;;;;;;;;5157376;27;20935;-70
2022/11/25 00:52:28;;;;;;;15.53;9.37;;;;;;;;;;5157065;27;20443;-70
2022/11/25 00:54:55;;;;;;;16.70;10.73;;;;;;;;;;5156712;27;20450;-70
2022/11/25 00:57:24;;;;;;;15.90;10.27;;;;;;;;;;5157047;27;20463;-69
2022/11/25 00:59:51;;;;;;;14.67;10.60;;;;;;;;;;5156954;27;20479;-70
2022/11/25 01:02:20;;;;;;;14.43;8.77;;;;;;;;;;5156586;27;20444;-70
2022/11/25 01:04:47;;;;;;;18.50;10.63;;;;;;;;;;5156825;27;20566;-70
2022/11/25 01:07:15;;;;;;;12.23;8.87;;;;;;;;;;5156958;27;20471;-70
2022/11/25 01:09:42;;;;;;;13.27;9.33;;;;;;;;;;5157141;27;20444;-70
2022/11/25 01:12:09;;;;;;;15.13;9.57;;;;;;;;;;5157039;27;20975;-70
2022/11/25 01:14:36;;;;;;;12.90;9.37;;;;;;;;;;5155264;27;20443;-70
2022/11/25 01:17:03;;;;;;;13.20;8.87;;;;;;;;;;5156718;27;20467;-70
2022/11/25 01:19:32;;;;;;;18.10;10.47;;;;;;;;;;5156244;27;20472;-70
2022/11/25 01:21:59;;;;;;;13.93;10.07;;;;;;;;;;5156587;27;20447;-69
2022/11/25 01:24:26;;;;;;;13.83;9.20;;;;;;;;;;5156307;27;20431;-70
2022/11/25 01:26:55;;;;;;;17.60;9.83;;;;;;;;;;5156830;27;20464;-70
2022/11/25 01:29:22;;;;;;;13.80;9.40;;;;;;;;;;5156689;27;20436;-70
2022/11/25 01:31:49;;;;;;;15.07;9.77;;;;;;;;;;5156150;27;20454;-70
2022/11/25 01:34:19;;;;;;;20.17;11.80;;;;;;;;;;5156386;27;20928;-70
2022/11/25 01:36:47;;;;;;;12.37;8.93;;;;;;;;;;5155682;27;20555;-70
2022/11/25 01:39:17;;;;;;;11.00;8.20;;;;;;;;;;5156294;27;20494;-70
2022/11/25 01:41:44;;;;;;;17.63;9.70;;;;;;;;;;5156336;27;20440;-70
2022/11/25 01:44:13;;;;;;;13.57;9.17;;;;;;;;;;5155982;27;20440;-69
2022/11/25 01:46:44;;;;;;;16.97;10.83;;;;;;;;;;5155516;27;20478;-70
2022/11/25 01:49:15;;;;;;;11.87;8.87;;;;;;;;;;5156085;27;20453;-70
2022/11/25 01:51:44;;;;;;;12.73;9.30;;;;;;;;;;5156181;27;20855;-70
2022/11/25 01:54:14;;;;;;;12.20;9.00;;;;;;;;;;5155636;27;20808;-70
2022/11/25 01:56:44;;;;;;;12.50;8.00;;;;;;;;;;5155651;27;20468;-70
2022/11/25 01:59:11;;;;;;;13.03;8.57;;;;;;;;;;5155732;27;20498;-70
2022/11/25 02:01:38;;;;;;;13.43;10.43;;;;;;;;;;5156082;27;20448;-70
2022/11/25 02:04:06;;;;;;;11.90;8.80;;;;;;;;;;5155441;27;20948;-70
2022/11/25 02:06:36;;;;;;;15.93;8.97;;;;;;;;;;5155364;27;20467;-70
2022/11/25 02:09:05;;;;;;;15.03;9.27;;;;;;;;;;5155888;27;20454;-70
2022/11/25 02:11:35;;;;;;;13.30;8.70;;;;;;;;;;5155547;27;20450;-69
2022/11/25 02:14:03;;;;;;;13.77;9.10;;;;;;;;;;5155444;27;20462;-69
2022/11/25 02:16:31;;;;;;;13.37;9.07;;;;;;;;;;5156076;27;20992;-70
2022/11/25 02:18:59;;;;;;;10.70;7.93;;;;;;;;;;5157672;27;21011;-71
2022/11/25 02:21:28;;;;;;;12.73;8.80;;;;;;;;;;5158609;27;20512;-70
2022/11/25 02:23:58;;;;;;;19.27;9.90;;;;;;;;;;5157159;27;20512;-70
2022/11/25 02:26:26;;;;;;;12.83;8.03;;;;;;;;;;5153886;27;20463;-69
2022/11/25 02:28:54;;;;;;;13.67;8.80;;;;;;;;;;5155618;27;20808;-70
2022/11/25 02:31:21;;;;;;;18.30;10.47;;;;;;;;;;5154476;27;20461;-70
2022/11/25 02:33:48;;;;;;;13.43;8.13;;;;;;;;;;5154922;27;20458;-70
2022/11/25 02:36:18;;;;;;;14.03;9.43;;;;;;;;;;5154988;27;20471;-70
2022/11/25 02:38:47;;;;;;;12.47;8.17;;;;;;;;;;5154467;27;20839;-70
2022/11/25 02:41:17;;;;;;;9.07;6.70;;;;;;;;;;5154692;27;20432;-70
2022/11/25 02:43:45;;;;;;;11.00;7.70;;;;;;;;;;5154474;27;20505;-69
2022/11/25 02:46:13;;;;;;;10.60;7.10;;;;;;;;;;5154806;27;20471;-70
2022/11/25 02:48:41;;;;;;;12.80;9.23;;;;;;;;;;5155282;27;20431;-70
2022/11/25 02:51:09;;;;;;;15.17;8.47;;;;;;;;;;5154714;27;20450;-70
2022/11/25 02:53:37;;;;;;;9.10;6.77;;;;;;;;;;5154518;27;20454;-70
2022/11/25 02:56:04;;;;;;;19.67;7.33;;;;;;;;;;5154567;27;20447;-70
2022/11/25 02:58:31;;;;;;;9.73;7.00;;;;;;;;;;5154401;27;20457;-69
2022/11/25 03:00:59;;;;;;;11.43;6.60;;;;;;;;;;5154758;27;20454;-70
2022/11/25 03:03:27;;;;;;;10.80;7.47;;;;;;;;;;5154468;27;20444;-70
2022/11/25 03:05:54;;;;;;;8.87;6.87;;;;;;;;;;5154795;27;20448;-69
2022/11/25 03:08:21;;;;;;;9.27;6.33;;;;;;;;;;5154923;27;20477;-70
2022/11/25 03:10:48;;;;;;;9.80;7.30;;;;;;;;;;5154823;27;20947;-70
2022/11/25 03:13:15;;;;;;;11.33;5.60;;;;;;;;;;5154808;27;20980;-70
2022/11/25 03:15:42;;;;;;;9.80;6.10;;;;;;;;;;5152959;27;20440;-69
2022/11/25 03:18:11;;;;;;;15.03;7.93;;;;;;;;;;5154381;27;20475;-69
2022/11/25 03:20:38;;;;;;;10.03;7.47;;;;;;;;;;5154298;27;20570;-69
2022/11/25 03:23:06;;;;;;;8.13;6.70;;;;;;;;;;5153757;27;20451;-70
2022/11/25 03:25:33;;;;;;;10.03;7.77;;;;;;;;;;5154475;27;20789;-70
2022/11/25 03:28:00;;;;;;;12.63;8.30;;;;;;;;;;5154672;27;20824;-70
2022/11/25 03:30:28;;;;;;;9.40;6.43;;;;;;;;;;5154141;27;20453;-69
2022/11/25 03:32:55;;;;;;;12.17;7.23;;;;;;;;;;5154539;27;20974;-70
2022/11/25 03:35:24;;;;;;;10.50;7.50;;;;;;;;;;5154212;27;20448;-70
2022/11/25 03:37:51;;;;;;;12.60;7.67;;;;;;;;;;5153764;27;20486;-70
2022/11/25 03:40:18;;;;;;;9.23;6.73;;;;;;;;;;5154508;27;20493;-70
2022/11/25 03:42:46;;;;;;;10.80;7.10;;;;;;;;;;5157819;27;20451;-70
2022/11/25 03:45:13;;;;;;;13.90;7.30;;;;;;;;;;5157938;27;20454;-70
2022/11/25 03:47:41;;;;;;;11.03;6.83;;;;;;;;;;5158697;27;20822;-70
2022/11/25 03:50:09;;;;;;;9.27;7.00;;;;;;;;;;5158501;27;20450;-70
2022/11/25 03:52:37;;;;;;;8.47;6.67;;;;;;;;;;5158243;27;20461;-69
2022/11/25 03:55:05;;;;;;;14.70;7.10;;;;;;;;;;5158252;27;20940;-70
2022/11/25 03:57:32;;;;;;;12.37;7.60;;;;;;;;;;5158313;27;20467;-69
2022/11/25 04:00:00;;;;;;;10.00;7.27;;;;;;;;;;5158366;27;20483;-70
2022/11/25 04:02:27;;;;;;;12.17;7.03;;;;;;;;;;5158325;27;20808;-70
2022/11/25 04:04:55;;;;;;;11.77;7.13;;;;;;;;;;5157676;27;20452;-70
2022/11/25 04:07:22;;;;;;;10.00;7.20;;;;;;;;;;5158199;27;20463;-70
2022/11/25 04:09:50;;;;;;;10.50;6.47;;;;;;;;;;5158218;27;20444;-70
2022/11/25 04:15:02;;;;;;;12.57;6.80;;;;;;;;;;5156500;27;20411;-70
2022/11/25 04:17:29;;;;;;;12.80;7.43;;;;;;;;;;5157972;27;20808;-69
2022/11/25 04:19:56;;;;;;;11.40;8.17;;;;;;;;;;5157445;27;20487;-70
2022/11/25 04:22:24;;;;;;;9.90;7.00;;;;;;;;;;5158083;27;20455;-70
2022/11/25 04:24:52;;;;;;;12.23;6.50;;;;;;;;;;5157264;27;20910;-70
2022/11/25 04:27:19;;;;;;;11.17;7.10;;;;;;;;;;5157922;27;20463;-70
2022/11/25 04:29:46;;;;;;;10.00;7.03;;;;;;;;;;5157692;27;20432;-70
2022/11/25 04:32:14;;;;;;;8.83;6.37;;;;;;;;;;5157791;27;20454;-70
2022/11/25 04:34:41;;;;;;;7.23;5.90;;;;;;;;;;5157222;27;20454;-70
2022/11/25 04:37:08;;;;;;;9.93;7.40;;;;;;;;;;5156618;27;20471;-70
2022/11/25 04:39:35;;;;;;;8.40;6.20;;;;;;;;;;5157379;27;20463;-70
2022/11/25 04:44:49;;;;;;;8.30;6.80;;;;;;;;;;5157331;27;20437;-70
2022/11/25 04:47:16;;;;;;;16.00;6.90;;;;;;;;;;5157468;27;20463;-69
2022/11/25 04:49:43;;;;;;;32.10;15.47;;;;;;;;;;5157286;27;20455;-69
2022/11/25 04:52:10;;;;;;;16.00;9.87;;;;;;;;;;5157559;27;20444;-70
2022/11/25 04:54:37;;;;;;;10.37;7.83;;;;;;;;;;5156630;27;20453;-70
2022/11/25 04:57:06;;;;;;;10.03;7.47;;;;;;;;;;5157314;27;20472;-70
2022/11/25 04:59:39;;;;;;;14.07;7.10;;;;;;;;;;5157258;27;20467;-69
2022/11/25 05:02:06;;;;;;;13.40;7.10;;;;;;;;;;5157302;27;20521;-69
2022/11/25 05:04:33;;;;;;;13.40;8.40;;;;;;;;;;5156891;27;20934;-70
2022/11/25 05:07:00;;;;;;;10.10;7.37;;;;;;;;;;5156868;27;20463;-69
2022/11/25 05:09:27;;;;;;;13.80;7.10;;;;;;;;;;5156812;27;20443;-69
2022/11/25 05:11:55;;;;;;;8.93;6.50;;;;;;;;;;5156528;27;20451;-70
2022/11/25 05:14:24;;;;;;;10.30;7.63;;;;;;;;;;5156360;27;20775;-69
2022/11/25 05:16:51;;;;;;;12.63;7.57;;;;;;;;;;5156394;27;20471;-69
2022/11/25 05:19:19;;;;;;;9.87;6.50;;;;;;;;;;5156933;27;20464;-70
2022/11/25 05:21:46;;;;;;;8.47;6.07;;;;;;;;;;5156824;27;20451;-70
2022/11/25 05:24:13;;;;;;;9.60;7.27;;;;;;;;;;5156808;27;20439;-70
2022/11/25 05:26:40;;;;;;;9.57;7.53;;;;;;;;;;5156859;27;20467;-70
2022/11/25 05:29:07;;;;;;;6.80;6.03;;;;;;;;;;5156775;27;20453;-70
2022/11/25 05:31:36;;;;;;;11.20;7.07;;;;;;;;;;5156746;27;20455;-70
2022/11/25 05:34:03;;;;;;;11.17;8.07;;;;;;;;;;5156394;27;20887;-70
2022/11/25 05:36:30;;;;;;;7.63;6.77;;;;;;;;;;5156476;27;20459;-70
2022/11/25 05:38:58;;;;;;;10.03;7.17;;;;;;;;;;5155596;27;20932;-70
2022/11/25 05:41:25;;;;;;;12.27;7.93;;;;;;;;;;5156087;27;20536;-69
2022/11/25 05:43:53;;;;;;;10.20;6.97;;;;;;;;;;5155693;27;20432;-70
2022/11/25 05:46:20;;;;;;;8.83;6.77;;;;;;;;;;5156123;27;20555;-70
2022/11/25 05:48:48;;;;;;;9.13;6.70;;;;;;;;;;5155602;27;20424;-70
2022/11/25 05:51:15;;;;;;;8.40;6.73;;;;;;;;;;5156425;27;20446;-70
2022/11/25 05:53:42;;;;;;;11.67;8.80;;;;;;;;;;5155893;27;20933;-70
2022/11/25 05:56:10;;;;;;;12.57;8.17;;;;;;;;;;5155883;27;20447;-70
2022/11/25 05:58:37;;;;;;;13.07;8.00;;;;;;;;;;5156141;27;20952;-70
2022/11/25 06:01:07;;;;;;;10.47;7.40;;;;;;;;;;5155543;27;20490;-70
2022/11/25 06:03:34;;;;;;;9.57;7.37;;;;;;;;;;5155632;27;20452;-70
2022/11/25 06:06:03;;;;;;;11.80;8.60;;;;;;;;;;5154842;27;20454;-70
2022/11/25 06:08:31;;;;;;;12.23;9.40;;;;;;;;;;5156068;27;20444;-70
2022/11/25 06:10:58;;;;;;;14.97;9.77;;;;;;;;;;5155941;27;20446;-70
2022/11/25 06:13:25;;;;;;;16.63;14.00;;;;;;;;;;5155525;27;20462;-70
2022/11/25 06:15:53;;;;;;;18.17;11.80;;;;;;;;;;5154530;27;20610;-70
2022/11/25 06:18:20;;;;;;;15.07;10.50;;;;;;;;;;5155506;27;20435;-70
2022/11/25 06:20:56;;;;;;;19.30;11.90;;;;;;;;;;5155718;27;21071;-70
2022/11/25 06:23:24;;;;;;;14.57;11.60;;;;;;;;;;5155676;27;20946;-70
2022/11/25 06:25:51;;;;;;;21.03;13.43;;;;;;;;;;5155383;27;20440;-70
2022/11/25 06:28:18;;;;;;;84.00;51.67;;;;;;;;;;5155332;27;20448;-70
2022/11/25 06:30:46;;;;;;;107.30;62.30;;;;;;;;;;5155558;27;20446;-70
2022/11/25 06:33:13;;;;;;;35.00;23.20;;;;;;;;;;5155477;27;20450;-70
2022/11/25 06:35:40;;;;;;;41.27;31.30;;;;;;;;;;5155044;27;20442;-70
2022/11/25 06:38:07;;;;;;;19.77;14.50;;;;;;;;;;5153900;27;20483;-69
2022/11/25 06:40:36;;;;;;;51.43;38.87;;;;;;;;;;5155028;27;20464;-70
2022/11/25 06:43:04;;;;;;;24.77;17.40;;;;;;;;;;5154961;27;20448;-70
2022/11/25 06:45:32;;;;;;;15.97;12.93;;;;;;;;;;5155188;27;20961;-70
2022/11/25 06:48:00;;;;;;;15.77;10.83;;;;;;;;;;5155142;27;20527;-70
2022/11/25 06:50:27;;;;;;;16.00;9.77;;;;;;;;;;5155181;27;20440;-70
2022/11/25 06:52:54;;;;;;;13.83;8.70;;;;;;;;;;5155184;27;20970;-70
2022/11/25 06:55:21;;;;;;;18.30;10.27;;;;;;;;;;5154510;27;20459;-70
2022/11/25 06:57:49;;;;;;;12.37;8.87;;;;;;;;;;5155082;27;20464;-70
2022/11/25 07:00:17;;;;;;;14.43;9.13;;;;;;;;;;5155100;27;20492;-70
2022/11/25 07:02:44;;;;;;;11.40;9.30;;;;;;;;;;5155132;27;20977;-70
2022/11/25 07:05:11;;;;;;;12.40;9.07;;;;;;;;;;5154793;27;20443;-70
2022/11/25 07:07:38;;;;;;;12.23;9.87;;;;;;;;;;5154617;27;20476;-69
2022/11/25 07:10:06;;;;;;;12.40;8.67;;;;;;;;;;5154339;27;20446;-70
2022/11/25 07:12:34;;;;;;;12.43;8.43;;;;;;;;;;5154272;27;20557;-70
2022/11/25 07:15:02;;;;;;;15.33;9.90;;;;;;;;;;5153214;27;20454;-69
2022/11/25 07:17:29;;;;;;;13.40;9.70;;;;;;;;;;5154277;27;20464;-69
2022/11/25 07:19:56;;;;;;;13.60;8.40;;;;;;;;;;5154818;27;20490;-70
2022/11/25 07:22:24;;;;;;;97.00;38.50;;;;;;;;;;5154037;27;20816;-70
2022/11/25 07:24:51;;;;;;;57.03;26.67;;;;;;;;;;5154689;27;20435;-70
2022/11/25 07:27:18;;;;;;;43.53;19.57;;;;;;;;;;5154951;27;20460;-70
2022/11/25 07:29:45;;;;;;;27.13;14.50;;;;;;;;;;5154422;27;20457;-69
2022/11/25 07:32:13;;;;;;;55.40;21.73;;;;;;;;;;5154632;27;20451;-70
2022/11/25 07:34:41;;;;;;;28.47;14.57;;;;;;;;;;5154376;27;20452;-70
2022/11/25 07:37:08;;;;;;;21.00;13.23;;;;;;;;;;5154006;27;20472;-70
2022/11/25 07:39:35;;;;;;;13.37;8.87;;;;;;;;;;5154336;27;20790;-70
2022/11/25 07:42:02;;;;;;;11.33;8.50;;;;;;;;;;5154435;27;20427;-70
2022/11/25 07:44:29;;;;;;;11.53;9.17;;;;;;;;;;5154325;27;20784;-69
2022/11/25 07:46:56;;;;;;;14.23;8.70;;;;;;;;;;5154171;27;20463;-69
2022/11/25 07:49:25;;;;;;;11.20;7.80;;;;;;;;;;5154522;27;20451;-70
2022/11/25 07:51:53;;;;;;;9.90;7.07;;;;;;;;;;5154665;27;20439;-70
2022/11/25 07:54:21;;;;;;;7.40;5.83;;;;;;;;;;5154243;27;20451;-70
2022/11/25 07:56:49;;;;;;;7.43;5.83;;;;;;;;;;5154654;27;20468;-70
2022/11/25 07:59:18;;;;;;;7.20;5.37;;;;;;;;;;5154025;27;20547;-70
2022/11/25 08:01:45;;;;;;;5.47;3.90;;;;;;;;;;5146652;27;20992;-69
2022/11/25 08:04:14;;;;;;;4.07;3.70;;;;;;;;;;5151944;27;20462;-69
2022/11/25 08:06:43;;;;;;;5.10;4.37;;;;;;;;;;5151493;27;20539;-69
2022/11/25 08:09:10;;;;;;;3.37;3.07;;;;;;;;;;5152274;27;20459;-69
2022/11/25 08:11:37;;;;;;;8.10;3.00;;;;;;;;;;5152633;27;20478;-69
2022/11/25 08:14:05;;;;;;;3.80;3.30;;;;;;;;;;5151594;27;20455;-69
2022/11/25 08:16:32;;;;;;;4.07;3.67;;;;;;;;;;5150498;27;20460;-70
2022/11/25 08:19:00;;;;;;;6.40;3.03;;;;;;;;;;5151845;27;20475;-69
2022/11/25 08:21:27;;;;;;;3.40;3.10;;;;;;;;;;5151150;27;20479;-69
2022/11/25 08:23:55;;;;;;;3.73;3.00;;;;;;;;;;5150875;27;20524;-69
2022/11/25 08:26:24;;;;;;;3.47;2.73;;;;;;;;;;5152425;27;20994;-69
2022/11/25 08:28:51;;;;;;;4.37;3.23;;;;;;;;;;5154008;27;20495;-69
2022/11/25 08:31:20;;;;;;;3.40;3.10;;;;;;;;;;5155970;27;20444;-69
2022/11/25 08:33:47;;;;;;;4.60;3.47;;;;;;;;;;5155370;27;20929;-69
2022/11/25 08:36:14;;;;;;;5.50;3.20;;;;;;;;;;5156262;27;20847;-69
2022/11/25 08:38:42;;;;;;;9.57;3.10;;;;;;;;;;5154808;27;20448;-69
2022/11/25 08:41:12;;;;;;;4.63;3.70;;;;;;;;;;5155397;27;20474;-69
2022/11/25 08:43:39;;;;;;;4.33;3.23;;;;;;;;;;5155088;27;20443;-69
2022/11/25 08:46:10;;;;;;;6.23;4.20;;;;;;;;;;5155120;27;20447;-70
2022/11/25 08:48:37;;;;;;;4.27;3.30;;;;;;;;;;5155926;27;20448;-69
2022/11/25 08:51:07;;;;;;;3.40;3.13;;;;;;;;;;5155605;27;20953;-69
2022/11/25 08:53:35;;;;;;;6.93;3.43;;;;;;;;;;5154990;27;20447;-69
2022/11/25 08:56:02;;;;;;;5.63;2.73;;;;;;;;;;5155815;27;20928;-70
2022/11/25 08:58:30;;;;;;;3.57;3.27;;;;;;;;;;5157020;27;20820;-69
2022/11/25 09:00:58;;;;;;;5.10;4.60;;;;;;;;;;5159605;27;20483;-69
2022/11/25 09:03:25;;;;;;;4.60;3.80;;;;;;;;;;5158293;27;20454;-70
2022/11/25 09:05:53;;;;;;;5.07;4.27;;;;;;;;;;5156652;27;20479;-69
2022/11/25 09:08:20;;;;;;;7.63;4.63;;;;;;;;;;5156594;27;20801;-70
2022/11/25 09:10:47;;;;;;;5.57;3.70;;;;;;;;;;5155743;27;20448;-69
2022/11/25 09:13:15;;;;;;;11.00;4.43;;;;;;;;;;5155332;27;20460;-69
2022/11/25 09:15:43;;;;;;;5.33;4.60;;;;;;;;;;5153799;27;20456;-69
2022/11/25 09:18:11;;;;;;;9.33;4.90;;;;;;;;;;5156138;27;20474;-71
2022/11/25 09:20:39;;;;;;;4.50;4.10;;;;;;;;;;5156519;27;20956;-69
2022/11/25 09:23:07;;;;;;;4.50;3.80;;;;;;;;;;5157031;27;20986;-70
2022/11/25 09:25:34;;;;;;;6.30;5.10;;;;;;;;;;5156466;27;20451;-69
2022/11/25 09:28:02;;;;;;;6.67;4.80;;;;;;;;;;5156473;27;20471;-70
2022/11/25 09:30:29;;;;;;;6.63;4.60;;;;;;;;;;5156805;27;20470;-70
2022/11/25 09:32:57;;;;;;;12.33;5.57;;;;;;;;;;5156664;27;20440;-70
2022/11/25 09:35:25;;;;;;;5.47;4.40;;;;;;;;;;5156126;27;20448;-70
2022/11/25 09:37:52;;;;;;;6.77;3.87;;;;;;;;;;5156080;27;20463;-70
2022/11/25 09:40:21;;;;;;;5.77;3.70;;;;;;;;;;5156024;27;20428;-70
2022/11/25 09:48:39;;;;;;;6.40;3.80;;;;;;;;;;5156572;27;20414;-70
2022/11/25 09:51:12;;;;;;;7.70;4.57;;;;;;;;;;5156359;27;20432;-70
2022/11/25 09:53:42;;;;;;;5.67;3.60;;;;;;;;;;5155866;27;20438;-69
2022/11/25 09:56:13;;;;;;;7.80;4.30;;;;;;;;;;5155972;27;20432;-70
2022/11/25 09:58:45;;;;;;;4.87;4.00;;;;;;;;;;5156225;27;20436;-70
2022/11/25 10:01:14;;;;;;;5.80;4.20;;;;;;;;;;5156172;27;20467;-70
2022/11/25 10:03:44;;;;;;;6.00;4.53;;;;;;;;;;5155909;27;20451;-70
2022/11/25 10:06:15;;;;;;;5.67;5.07;;;;;;;;;;5156060;27;20432;-70
2022/11/25 10:08:44;;;;;;;7.90;6.43;;;;;;;;;;5155702;27;20454;-70
2022/11/25 10:11:15;;;;;;;11.00;7.20;;;;;;;;;;5155690;27;20448;-70
2022/11/25 10:13:45;;;;;;;7.40;6.43;;;;;;;;;;5155051;27;20460;-70
2022/11/25 10:16:18;;;;;;;7.63;6.83;;;;;;;;;;5154174;27;20446;-70
2022/11/25 10:18:52;;;;;;;10.10;6.80;;;;;;;;;;5155640;27;20773;-70
2022/11/25 10:21:20;;;;;;;8.57;5.80;;;;;;;;;;5155710;27;20471;-70
2022/11/25 10:23:47;;;;;;;8.03;5.80;;;;;;;;;;5155334;27;20807;-70
2022/11/25 10:26:15;;;;;;;8.33;6.30;;;;;;;;;;5155538;27;20470;-70
2022/11/25 10:28:44;;;;;;;9.93;6.47;;;;;;;;;;5155571;27;20447;-70
2022/11/25 10:31:13;;;;;;;8.73;6.00;;;;;;;;;;5155312;27;20444;-70
2022/11/25 10:33:44;;;;;;;4.97;4.47;;;;;;;;;;5155063;27;20440;-70
2022/11/25 10:36:16;;;;;;;5.93;4.60;;;;;;;;;;5155480;27;20763;-70
2022/11/25 10:38:45;;;;;;;7.37;4.80;;;;;;;;;;5155085;27;20519;-70
2022/11/25 10:41:15;;;;;;;7.73;4.33;;;;;;;;;;5155274;27;21018;-70
2022/11/25 10:43:43;;;;;;;6.77;5.27;;;;;;;;;;5155151;27;20432;-70
2022/11/25 10:46:13;;;;;;;5.90;5.30;;;;;;;;;;5155289;27;20456;-70
2022/11/25 10:48:51;;;;;;;6.87;5.20;;;;;;;;;;5155334;27;20435;-70
2022/11/25 10:51:32;;;;;;;4.90;4.40;;;;;;;;;;5154748;27;20912;-70
2022/11/25 10:54:12;;;;;;;12.53;7.20;;;;;;;;;;5154751;27;20435;-70
2022/11/25 10:56:43;;;;;;;11.53;6.40;;;;;;;;;;5155221;27;20478;-70
2022/11/25 10:59:13;;;;;;;11.50;7.00;;;;;;;;;;5154793;27;20428;-71
2022/11/25 11:01:40;;;;;;;9.30;7.10;;;;;;;;;;5155132;27;20485;-70
2022/11/25 11:04:13;;;;;;;11.03;6.80;;;;;;;;;;5154770;27;20504;-71
2022/11/25 11:06:42;;;;;;;8.00;5.40;;;;;;;;;;5154906;27;20558;-70
2022/11/25 11:09:30;;;;;;;9.37;6.20;;;;;;;;;;5154739;27;20447;-71
2022/11/25 11:11:57;;;;;;;7.10;6.30;;;;;;;;;;5154782;27;20901;-70
2022/11/25 11:14:28;;;;;;;7.73;5.23;;;;;;;;;;5153799;27;20432;-69
2022/11/25 11:16:56;;;;;;;8.17;5.83;;;;;;;;;;5154653;27;20861;-70
2022/11/25 11:19:24;;;;;;;9.43;5.53;;;;;;;;;;5154570;27;20428;-70
2022/11/25 11:21:55;;;;;;;6.53;5.63;;;;;;;;;;5154472;27;20858;-70
2022/11/25 11:24:25;;;;;;;6.73;6.10;;;;;;;;;;5154095;27;20432;-71
2022/11/25 11:27:02;;;;;;;6.33;5.70;;;;;;;;;;5154538;27;20913;-70
2022/11/25 11:29:29;;;;;;;9.97;5.70;;;;;;;;;;5154957;27;20885;-70
2022/11/25 11:31:59;;;;;;;9.67;6.33;;;;;;;;;;5154183;27;20454;-70
2022/11/25 11:34:35;;;;;;;6.93;5.10;;;;;;;;;;5154374;27;20432;-71
2022/11/25 11:37:15;;;;;;;11.83;6.50;;;;;;;;;;5153700;27;20832;-70
2022/11/25 11:39:58;;;;;;;10.97;6.07;;;;;;;;;;5154577;27;20434;-70
2022/11/25 11:42:31;;;;;;;9.23;5.53;;;;;;;;;;5154413;27;20499;-71
2022/11/25 11:45:05;;;;;;;28.63;15.13;;;;;;;;;;5153469;27;20443;-71
2022/11/25 11:47:36;;;;;;;6.10;5.23;;;;;;;;;;5153489;27;20478;-71
2022/11/25 11:50:09;;;;;;;8.43;5.10;;;;;;;;;;5154560;27;20432;-70
2022/11/25 11:52:46;;;;;;;12.93;6.77;;;;;;;;;;5153938;27;20444;-71
2022/11/25 11:55:28;;;;;;;6.23;5.03;;;;;;;;;;5153890;27;20427;-71
2022/11/25 11:58:00;;;;;;;7.07;5.70;;;;;;;;;;5154444;27;20467;-71
2022/11/25 12:00:32;;;;;;;10.07;6.30;;;;;;;;;;5154482;27;20829;-71
2022/11/25 12:03:01;;;;;;;11.90;6.40;;;;;;;;;;5153715;27;20515;-71
2022/11/25 12:05:30;;;;;;;9.20;6.10;;;;;;;;;;5157200;27;20456;-71
2022/11/25 12:08:03;;;;;;;11.77;8.10;;;;;;;;;;5158028;27;20486;-71
2022/11/25 12:10:32;;;;;;;11.00;6.47;;;;;;;;;;5158016;27;20535;-71
2022/11/25 12:13:02;;;;;;;9.53;6.50;;;;;;;;;;5157941;27;20459;-71
2022/11/25 12:15:34;;;;;;;8.93;5.77;;;;;;;;;;5155916;27;20450;-73
2022/11/25 12:18:03;;;;;;;11.20;8.60;;;;;;;;;;5158059;27;20833;-71
2022/11/25 12:20:36;;;;;;;10.03;7.10;;;;;;;;;;5156825;27;21007;-71
2022/11/25 12:23:06;;;;;;;7.10;6.07;;;;;;;;;;5157559;27;20554;-71
2022/11/25 12:25:36;;;;;;;8.23;6.40;;;;;;;;;;5156425;27;20447;-71
2022/11/25 12:28:05;;;;;;;6.80;6.10;;;;;;;;;;5158142;27;20831;-71
2022/11/25 12:30:35;;;;;;;8.13;5.90;;;;;;;;;;5158036;27;20461;-71
2022/11/25 12:33:06;;;;;;;10.30;6.20;;;;;;;;;;5157810;27;20428;-71
2022/11/25 12:35:46;;;;;;;21.73;15.63;;;;;;;;;;5157494;27;20451;-71
2022/11/25 12:38:20;;;;;;;13.00;8.70;;;;;;;;;;5157695;27;20467;-70
2022/11/25 12:40:50;;;;;;;10.50;6.00;;;;;;;;;;5157473;27;20966;-71
2022/11/25 12:43:24;;;;;;;13.40;6.30;;;;;;;;;;5156872;27;20507;-71
2022/11/25 12:45:56;;;;;;;14.77;8.87;;;;;;;;;;5157348;27;20467;-71
2022/11/25 12:48:23;;;;;;;14.93;6.23;;;;;;;;;;5156827;27;20454;-71
2022/11/25 12:50:53;;;;;;;6.70;4.60;;;;;;;;;;5157196;27;20455;-71
2022/11/25 12:53:25;;;;;;;6.40;5.30;;;;;;;;;;5157155;27;20448;-71
2022/11/25 12:55:54;;;;;;;6.83;4.60;;;;;;;;;;5157401;27;20893;-71
2022/11/25 12:58:39;;;;;;;6.47;4.33;;;;;;;;;;5156161;27;20451;-71
2022/11/25 13:01:33;;;;;;;6.50;4.97;;;;;;;;;;5156495;27;20454;-71
2022/11/25 13:04:30;;;;;;;13.23;6.23;;;;;;;;;;5156248;27;20558;-71
2022/11/25 13:07:11;;;;;;;11.10;5.03;;;;;;;;;;5156628;27;20475;-71
2022/11/25 13:09:47;;;;;;;7.20;5.07;;;;;;;;;;5155150;27;20469;-71
2022/11/25 13:12:21;;;;;;;6.00;5.03;;;;;;;;;;5157017;27;20451;-71
2022/11/25 13:15:04;;;;;;;5.90;4.13;;;;;;;;;;5153670;27;20936;-71
2022/11/25 13:17:33;;;;;;;7.97;5.23;;;;;;;;;;5156838;27;20837;-70
2022/11/25 13:20:18;;;;;;;7.90;6.13;;;;;;;;;;5156667;27;20455;-70
2022/11/25 13:23:00;;;;;;;8.03;5.10;;;;;;;;;;5155435;27;20498;-71
2022/11/25 13:25:29;;;;;;;5.40;4.90;;;;;;;;;;5156225;27;20448;-71
2022/11/25 13:27:57;;;;;;;9.30;6.70;;;;;;;;;;5156092;27;20904;-71
2022/11/25 13:30:37;;;;;;;6.50;5.60;;;;;;;;;;5156711;27;20532;-70
2022/11/25 13:33:19;;;;;;;7.63;5.50;;;;;;;;;;5156398;27;20431;-71
2022/11/25 13:35:50;;;;;;;5.33;4.83;;;;;;;;;;5156402;27;20443;-71
2022/11/25 13:38:42;;;;;;;6.03;5.43;;;;;;;;;;5156534;27;20489;-71
2022/11/25 13:41:33;;;;;;;7.00;4.50;;;;;;;;;;5131246;27;20455;-71
2022/11/25 13:44:04;;;;;;;6.00;4.80;;;;;;;;;;5156048;27;20450;-71
2022/11/25 13:46:38;;;;;;;6.83;4.90;;;;;;;;;;5155692;27;20476;-71
2022/11/25 13:49:06;;;;;;;6.90;5.57;;;;;;;;;;5156029;27;20435;-71
2022/11/25 13:51:34;;;;;;;5.23;4.73;;;;;;;;;;5155975;27;20455;-71
2022/11/25 13:54:02;;;;;;;8.27;5.53;;;;;;;;;;5155939;27;20432;-71
2022/11/25 13:56:32;;;;;;;7.73;5.50;;;;;;;;;;5156038;27;20469;-71
2022/11/25 13:59:18;;;;;;;11.40;8.47;;;;;;;;;;5156152;27;20494;-71
2022/11/25 14:01:53;;;;;;;8.13;6.17;;;;;;;;;;5155558;27;20447;-71
2022/11/25 14:04:24;;;;;;;9.90;6.07;;;;;;;;;;5155841;27;20565;-71
2022/11/25 14:07:02;;;;;;;5.67;4.97;;;;;;;;;;5155612;27;20463;-71
2022/11/25 14:09:35;;;;;;;8.00;6.40;;;;;;;;;;5156046;27;21337;-71
2022/11/25 14:12:10;;;;;;;12.47;6.90;;;;;;;;;;5155605;27;20439;-70
2022/11/25 14:14:53;;;;;;;7.67;5.70;;;;;;;;;;5153193;27;20450;-70
2022/11/25 14:17:27;;;;;;;7.80;7.00;;;;;;;;;;5155550;27;20566;-70
2022/11/25 14:20:04;;;;;;;7.97;7.20;;;;;;;;;;5155877;27;20443;-71
2022/11/25 14:22:57;;;;;;;9.80;6.37;;;;;;;;;;5155277;27;20468;-71
2022/11/25 14:25:28;;;;;;;9.27;7.57;;;;;;;;;;5154693;27;20943;-70
2022/11/25 14:27:59;;;;;;;10.10;8.50;;;;;;;;;;5154606;27;20493;-71
2022/11/25 14:30:26;;;;;;;10.23;6.53;;;;;;;;;;5151681;27;20547;-70
2022/11/25 14:32:57;;;;;;;11.47;8.97;;;;;;;;;;5152113;27;20440;-70
2022/11/25 14:35:27;;;;;;;11.20;7.70;;;;;;;;;;5153154;27;20917;-70
2022/11/25 14:37:57;;;;;;;13.53;8.00;;;;;;;;;;5152002;27;20493;-70
2022/11/25 14:40:26;;;;;;;9.63;7.00;;;;;;;;;;5153593;27;20432;-70
2022/11/25 14:42:54;;;;;;;12.23;8.47;;;;;;;;;;5153813;27;20483;-70
2022/11/25 14:45:25;;;;;;;13.83;8.13;;;;;;;;;;5152974;27;20956;-70
2022/11/25 14:47:52;;;;;;;10.53;7.60;;;;;;;;;;5153596;27;20474;-70
2022/11/25 14:50:19;;;;;;;15.27;8.70;;;;;;;;;;5153550;27;20522;-70
2022/11/25 14:52:47;;;;;;;19.47;15.97;;;;;;;;;;5153362;27;20518;-70
2022/11/25 14:55:14;;;;;;;17.30;11.10;;;;;;;;;;5153295;27;20987;-70
2022/11/25 14:57:45;;;;;;;20.47;12.47;;;;;;;;;;5153323;27;20479;-70
2022/11/25 15:00:14;;;;;;;12.17;9.50;;;;;;;;;;5153776;27;20455;-70